Flight Track Log - Related Links

Times and Time Zones

All times are in EST time to prevent confusion due to time zone crossing. See the UCA3597 flight status page for this flight to view local times or setup timezone preferences in your user account.

Time Position Orientation Groundspeed Altitude Reporting Facility
EST Latitude Longitude Course Direction KTS MPH feet Rate Location/Type
Sat 06:35:00 PM 39.4352 -77.2480 19° North  Level Estimated
Sat 06:36:00 PM 39.5048 -77.2175 19° North  Level Estimated
Sat 06:37:00 PM 39.5744 -77.1869 19° North  Level Estimated
Sat 06:38:00 PM 39.6441 -77.1563 19° North  Level Estimated
Sat 06:39:00 PM 39.7137 -77.1256 19° North  Level Estimated
Sat 06:40:00 PM 39.7833 -77.0948 19° North  Level Estimated
Sat 06:41:00 PM 39.8529 -77.0640 19° North  Level Estimated
Sat 06:42:00 PM 39.9225 -77.0331 19° North  Level Estimated
Sat 06:43:00 PM 39.9921 -77.0022 19° North  Level Estimated
Sat 06:44:00 PM 40.0616 -76.9711 19° North  Level Estimated
Sat 06:45:00 PM 40.1312 -76.9401 19° North  Level Estimated
Sat 06:46:00 PM 40.2008 -76.9089 19° North  Level Estimated
Sat 06:47:00 PM 40.2703 -76.8777 19° North  Level Estimated
Sat 06:48:00 PM 40.3399 -76.8465 19° North  Level Estimated
Sat 06:49:00 PM 40.4094 -76.8151 19° North  Level Estimated
Sat 06:50:00 PM 40.4789 -76.7837 19° North  Level Estimated
Sat 06:51:00 PM 40.5485 -76.7523 19° North  Level Estimated
Sat 06:52:00 PM 40.6180 -76.7207 19° North  Level Estimated
Sat 06:53:00 PM 40.6875 -76.6891 19° North  Level Estimated
Sat 06:54:00 PM 40.7570 -76.6575 19° North  Level Estimated
Sat 06:55:00 PM 40.8264 -76.6257 19° North  Level Estimated
Sat 06:56:00 PM 40.8959 -76.5940 19° North  Level Estimated
Sat 06:57:00 PM 40.9654 -76.5621 19° North  Level Estimated
Sat 06:58:00 PM 41.0349 -76.5302 19° North  Level Estimated
Sat 06:59:00 PM 41.1043 -76.4982 19° North  Level Estimated
Sat 07:00:00 PM 41.1737 -76.4661 19° North  Level Estimated
Sat 07:01:00 PM 41.2432 -76.4340 19° North  Level Estimated
Sat 07:02:00 PM 41.3126 -76.4018 19° North  Level Estimated
Sat 07:03:00 PM 41.3820 -76.3695 19° North  Level Estimated
Sat 07:04:00 PM 41.4514 -76.3372 19° North  Level Estimated
Sat 07:05:00 PM 41.5208 -76.3048 19° North  Level Estimated
Sat 07:06:00 PM 41.5902 -76.2723 19° North  Level Estimated
Sat 07:07:00 PM 41.6596 -76.2397 19° North  Level Estimated
Sat 07:08:00 PM 41.7289 -76.2071 19° North  Level Estimated
Sat 07:09:00 PM 41.7983 -76.1744 19° North  Level Estimated
Sat 07:10:00 PM 41.8676 -76.1417 19° North  Level Estimated
Sat 07:11:00 PM 41.9370 -76.1088 19° North  Level Estimated
Sat 07:12:00 PM 42.0063 -76.0760 19° North  Level Estimated
Sat 07:13:00 PM 42.0756 -76.0430 19° North  Level Estimated
Sat 07:14:00 PM 42.1450 -76.0099 19° North  Level Estimated
Sat 07:15:00 PM 42.2084 -75.9796 19° North  Level Estimated
Sat 07:16:00 PM 42.2084 -75.9796 35° Northeast  Level Estimated
Sat 07:17:00 PM 42.2084 -75.9796 35° Northeast  Level Estimated
Sat 07:18:00 PM 42.2084 -75.9796 35° Northeast  Level Estimated
Sat 07:19:00 PM 42.2084 -75.9796 35° Northeast  Level Estimated
Sat 07:20:00 PM 42.2084 -75.9796 35° Northeast  Level Estimated
Sat 07:21:00 PM 42.2084 -75.9796 35° Northeast  Level Estimated
Sat 07:22:00 PM 42.2084 -75.9796 35° Northeast  Level Estimated
Sat 07:23:00 PM 42.2084 -75.9796 35° Northeast  Level Estimated
Sat 07:24:00 PM 42.2084 -75.9796 35° Northeast  Level Estimated
Sat 07:25:00 PM 42.2084 -75.9796 35° Northeast  Level Estimated
Sat 07:26:00 PM 42.2084 -75.9796 35° Northeast  Level Estimated
Sat 07:27:00 PM 42.2084 -75.9796 35° Northeast  Level Estimated
Sat 07:28:00 PM 42.2084 -75.9796 35° Northeast  Level Estimated
Sat 07:29:00 PM 42.2084 -75.9796 35° Northeast  Level Estimated
Sat 07:30:00 PM 42.2084 -75.9796 35° Northeast  Level Estimated
Sat 07:31:00 PM 42.2084 -75.9796 35° Northeast  Level Estimated

Login

Don't have an account? Register now (free) for customized features, flight alerts, and more!